Time,TemperatureF,DewpointF,PressureIn,WindDirection,WindDirectionDegrees,WindSpeedMPH,WindSpeedGustMPH,Humidity,HourlyPrecipIn,Conditions,Clouds,dailyrainin,SoftwareType,DateUTC
2013-06-25 00:11:00,81.9,75.8,29.89,ESE,112,4.2,-999.0,82,-99.99,,,0.00,Acu-Link.com,2013-06-25 05:11:00,
2013-06-25 00:26:00,81.9,75.8,29.90,SE,135,5.8,-999.0,82,-99.99,,,0.00,Acu-Link.com,2013-06-25 05:26:00,
2013-06-25 00:41:00,81.7,76.0,29.90,ESE,112,6.3,-999.0,83,-99.99,,,0.00,Acu-Link.com,2013-06-25 05:41:00,
2013-06-25 00:56:00,81.5,76.2,29.90,SE,135,7.3,-999.0,84,-99.99,,,0.00,Acu-Link.com,2013-06-25 05:56:00,
2013-06-25 01:11:00,81.5,76.2,29.90,South,180,7.3,-999.0,84,-99.99,,,0.00,Acu-Link.com,2013-06-25 06:11:00,
2013-06-25 01:26:00,81.1,75.8,29.89,ESE,112,3.7,-999.0,84,-99.99,,,0.00,Acu-Link.com,2013-06-25 06:26:00,
2013-06-25 01:42:00,81.0,75.7,29.90,East,90,7.8,-999.0,84,-99.99,,,0.00,Acu-Link.com,2013-06-25 06:42:00,
2013-06-25 01:57:00,80.8,75.5,29.87,East,90,4.7,-999.0,84,-99.99,,,0.00,Acu-Link.com,2013-06-25 06:57:00,
2013-06-25 02:12:00,80.6,75.3,29.87,SSE,157,5.8,-999.0,84,-99.99,,,0.00,Acu-Link.com,2013-06-25 07:12:00,
2013-06-25 02:27:00,80.6,75.3,29.88,East,90,9.4,-999.0,84,-99.99,,,0.00,Acu-Link.com,2013-06-25 07:27:00,
2013-06-25 02:42:00,80.4,75.1,29.88,SSE,157,2.2,-999.0,84,-99.99,,,0.00,Acu-Link.com,2013-06-25 07:42:00,
2013-06-25 02:57:00,80.4,75.1,29.87,SSE,157,3.7,-999.0,84,-99.99,,,0.00,Acu-Link.com,2013-06-25 07:57:00,
2013-06-25 03:16:00,80.4,75.1,29.87,ESE,112,3.2,-999.0,84,-99.99,,,0.00,Acu-Link.com,2013-06-25 08:16:00,
2013-06-25 03:31:00,80.2,74.9,29.88,SSE,157,6.3,-999.0,84,-99.99,,,0.00,Acu-Link.com,2013-06-25 08:31:00,
2013-06-25 03:46:00,80.2,74.9,29.88,ESE,112,5.3,-999.0,84,-99.99,,,0.00,Acu-Link.com,2013-06-25 08:46:00,
2013-06-25 04:01:00,80.1,74.8,29.87,SSE,157,5.3,-999.0,84,-99.99,,,0.00,Acu-Link.com,2013-06-25 09:01:00,
2013-06-25 04:16:00,79.9,74.6,29.87,SSE,157,2.7,-999.0,84,-99.99,,,0.00,Acu-Link.com,2013-06-25 09:16:00,
2013-06-25 04:31:00,79.7,74.4,29.87,ESE,112,5.3,-999.0,84,-99.99,,,0.00,Acu-Link.com,2013-06-25 09:31:00,
2013-06-25 04:47:00,79.5,74.6,29.88,SSE,157,5.8,-999.0,85,-99.99,,,0.00,Acu-Link.com,2013-06-25 09:47:00,
2013-06-25 05:02:00,79.5,74.6,29.87,ESE,112,4.2,-999.0,85,-99.99,,,0.00,Acu-Link.com,2013-06-25 10:02:00,
2013-06-25 05:17:00,79.3,74.4,29.87,East,90,5.8,-999.0,85,-99.99,,,0.00,Acu-Link.com,2013-06-25 10:17:00,
2013-06-25 05:32:00,79.3,74.4,29.88,ESE,112,3.2,-999.0,85,-99.99,,,0.00,Acu-Link.com,2013-06-25 10:32:00,
2013-06-25 05:47:00,79.3,74.4,29.89,SE,135,6.3,-999.0,85,-99.99,,,0.00,Acu-Link.com,2013-06-25 10:47:00,
2013-06-25 06:02:00,79.2,74.6,29.88,SSE,157,6.3,-999.0,86,-99.99,,,0.00,Acu-Link.com,2013-06-25 11:02:00,
2013-06-25 06:17:00,79.2,74.6,29.88,SSE,157,7.3,-999.0,86,-99.99,,,0.00,Acu-Link.com,2013-06-25 11:17:00,
2013-06-25 06:32:00,79.0,74.4,29.87,NE,45,4.7,-999.0,86,-99.99,,,0.00,Acu-Link.com,2013-06-25 11:32:00,
2013-06-25 06:47:00,79.0,74.4,29.89,SSE,157,3.2,-999.0,86,-99.99,,,0.00,Acu-Link.com,2013-06-25 11:47:00,
2013-06-25 07:03:00,79.0,74.4,29.89,East,90,3.7,-999.0,86,-99.99,,,0.00,Acu-Link.com,2013-06-25 12:03:00,
2013-06-25 07:18:00,79.2,74.6,29.88,SE,135,2.2,-999.0,86,-99.99,,,0.00,Acu-Link.com,2013-06-25 12:18:00,
2013-06-25 07:33:00,79.5,74.9,29.88,South,180,3.7,-999.0,86,-99.99,,,0.00,Acu-Link.com,2013-06-25 12:33:00,
2013-06-25 07:48:00,79.9,75.0,29.88,South,180,2.7,-999.0,85,-99.99,,,0.00,Acu-Link.com,2013-06-25 12:48:00,
2013-06-25 08:03:00,80.6,75.3,29.88,SSE,157,3.2,-999.0,84,-99.99,,,0.00,Acu-Link.com,2013-06-25 13:03:00,
2013-06-25 08:18:00,81.3,74.9,29.88,SSE,157,4.2,-999.0,81,-99.99,,,0.00,Acu-Link.com,2013-06-25 13:18:00,
2013-06-25 08:33:00,82.2,75.0,29.88,SSE,157,4.2,-999.0,79,-99.99,,,0.00,Acu-Link.com,2013-06-25 13:33:00,
2013-06-25 08:48:00,83.1,75.1,29.88,South,180,3.7,-999.0,77,-99.99,,,0.00,Acu-Link.com,2013-06-25 13:48:00,
2013-06-25 09:03:00,84.0,74.8,29.88,SE,135,4.2,-999.0,74,-99.99,,,0.00,Acu-Link.com,2013-06-25 14:03:00,
2013-06-25 09:19:00,85.1,75.0,29.88,SSE,157,5.8,-999.0,72,-99.99,,,0.00,Acu-Link.com,2013-06-25 14:19:00,
2013-06-25 09:34:00,86.0,75.5,29.88,ESE,112,2.7,-999.0,71,-99.99,,,0.00,Acu-Link.com,2013-06-25 14:34:00,
2013-06-25 09:49:00,86.9,75.5,29.87,West,270,5.3,-999.0,69,-99.99,,,0.00,Acu-Link.com,2013-06-25 14:49:00,
2013-06-25 10:04:00,88.2,75.8,29.87,NNE,22,9.4,-999.0,67,-99.99,,,0.00,Acu-Link.com,2013-06-25 15:04:00,
2013-06-25 10:19:00,89.6,76.7,29.87,SW,225,4.7,-999.0,66,-99.99,,,0.00,Acu-Link.com,2013-06-25 15:19:00,
2013-06-25 10:34:00,90.7,76.8,29.88,East,90,9.9,-999.0,64,-99.99,,,0.00,Acu-Link.com,2013-06-25 15:34:00,
2013-06-25 10:49:00,87.6,75.3,29.88,South,180,8.3,-999.0,67,-99.99,,,0.00,Acu-Link.com,2013-06-25 15:49:00,
2013-06-25 11:04:00,88.3,75.5,29.87,ESE,112,2.7,-999.0,66,-99.99,,,0.00,Acu-Link.com,2013-06-25 16:04:00,
2013-06-25 11:19:00,90.7,76.8,29.87,SSE,157,4.7,-999.0,64,-99.99,,,0.00,Acu-Link.com,2013-06-25 16:19:00,
2013-06-25 11:35:00,89.8,76.0,29.86,NNE,22,4.2,-999.0,64,-99.99,,,0.00,Acu-Link.com,2013-06-25 16:35:00,
2013-06-25 11:50:00,90.0,76.1,29.86,East,90,7.3,-999.0,64,-99.99,,,0.00,Acu-Link.com,2013-06-25 16:50:00,
2013-06-25 12:05:00,89.6,75.8,29.86,ESE,112,7.3,-999.0,64,-99.99,,,0.00,Acu-Link.com,2013-06-25 17:05:00,
2013-06-25 12:20:00,89.6,75.8,29.85,SSW,202,7.3,-999.0,64,-99.99,,,0.00,Acu-Link.com,2013-06-25 17:20:00,
2013-06-25 12:35:00,92.8,76.8,29.85,ENE,67,8.3,-999.0,60,-99.99,,,0.00,Acu-Link.com,2013-06-25 17:35:00,
2013-06-25 12:50:00,93.9,76.8,29.84,East,90,10.9,-999.0,58,-99.99,,,0.00,Acu-Link.com,2013-06-25 17:50:00,
2013-06-25 13:05:00,94.5,76.3,29.83,SSE,157,7.3,-999.0,56,-99.99,,,0.00,Acu-Link.com,2013-06-25 18:05:00,
2013-06-25 13:20:00,92.5,75.5,29.85,ESE,112,4.2,-999.0,58,-99.99,,,0.00,Acu-Link.com,2013-06-25 18:20:00,
2013-06-25 13:35:00,94.8,76.1,29.85,NE,45,12.5,-999.0,55,-99.99,,,0.00,Acu-Link.com,2013-06-25 18:35:00,
2013-06-25 13:51:00,94.6,77.0,29.83,NE,45,6.8,-999.0,57,-99.99,,,0.00,Acu-Link.com,2013-06-25 18:51:00,
2013-06-25 14:06:00,94.3,76.7,29.83,SSE,157,5.8,-999.0,57,-99.99,,,0.00,Acu-Link.com,2013-06-25 19:06:00,
2013-06-25 14:21:00,95.4,76.6,29.82,SE,135,11.4,-999.0,55,-99.99,,,0.00,Acu-Link.com,2013-06-25 19:21:00,
2013-06-25 14:36:00,94.3,77.2,29.83,East,90,8.3,-999.0,58,-99.99,,,0.00,Acu-Link.com,2013-06-25 19:36:00,
2013-06-25 14:51:00,93.7,76.6,29.83,SE,135,8.9,-999.0,58,-99.99,,,0.00,Acu-Link.com,2013-06-25 19:51:00,
2013-06-25 15:06:00,93.2,76.7,29.82,SE,135,9.4,-999.0,59,-99.99,,,0.00,Acu-Link.com,2013-06-25 20:06:00,
2013-06-25 15:21:00,93.7,77.2,29.81,ENE,67,9.4,-999.0,59,-99.99,,,0.00,Acu-Link.com,2013-06-25 20:21:00,
2013-06-25 15:36:00,93.9,75.8,29.80,SE,135,5.8,-999.0,56,-99.99,,,0.00,Acu-Link.com,2013-06-25 20:36:00,
2013-06-25 15:51:00,94.8,77.1,29.82,East,90,6.8,-999.0,57,-99.99,,,0.00,Acu-Link.com,2013-06-25 20:51:00,
2013-06-25 16:07:00,92.5,77.1,29.81,ESE,112,4.7,-999.0,61,-99.99,,,0.00,Acu-Link.com,2013-06-25 21:07:00,
2013-06-25 16:22:00,91.9,77.0,29.81,East,90,17.1,-999.0,62,-99.99,,,0.00,Acu-Link.com,2013-06-25 21:22:00,
2013-06-25 16:37:00,91.4,77.0,29.80,ESE,112,8.9,-999.0,63,-99.99,,,0.00,Acu-Link.com,2013-06-25 21:37:00,
2013-06-25 16:52:00,91.8,76.9,29.80,ESE,112,20.7,-999.0,62,-99.99,,,0.00,Acu-Link.com,2013-06-25 21:52:00,
2013-06-25 17:07:00,92.7,76.7,29.80,East,90,8.9,-999.0,60,-99.99,,,0.00,Acu-Link.com,2013-06-25 22:07:00,
2013-06-25 17:22:00,91.2,76.3,29.79,SE,135,4.7,-999.0,62,-99.99,,,0.00,Acu-Link.com,2013-06-25 22:22:00,
2013-06-25 17:37:00,90.7,76.3,29.78,East,90,11.9,-999.0,63,-99.99,,,0.00,Acu-Link.com,2013-06-25 22:37:00,
2013-06-25 17:52:00,90.9,76.5,29.78,ENE,67,4.2,-999.0,63,-99.99,,,0.00,Acu-Link.com,2013-06-25 22:52:00,
2013-06-25 18:07:00,90.0,76.6,29.80,ESE,112,10.9,-999.0,65,-99.99,,,0.00,Acu-Link.com,2013-06-25 23:07:00,
2013-06-25 18:23:00,89.2,76.8,29.80,SSE,157,8.3,-999.0,67,-99.99,,,0.00,Acu-Link.com,2013-06-25 23:23:00,
2013-06-25 18:38:00,88.5,76.1,29.78,ESE,112,5.8,-999.0,67,-99.99,,,0.00,Acu-Link.com,2013-06-25 23:38:00,
2013-06-25 18:53:00,88.3,75.9,29.77,SE,135,5.3,-999.0,67,-99.99,,,0.00,Acu-Link.com,2013-06-25 23:53:00,
2013-06-25 19:08:00,86.9,75.9,29.78,ENE,67,12.5,-999.0,70,-99.99,,,0.00,Acu-Link.com,2013-06-26 00:08:00,
2013-06-25 19:23:00,86.2,76.1,29.78,ENE,67,5.8,-999.0,72,-99.99,,,0.00,Acu-Link.com,2013-06-26 00:23:00,
2013-06-25 19:38:00,85.3,75.2,29.79,SSE,157,3.7,-999.0,72,-99.99,,,0.00,Acu-Link.com,2013-06-26 00:38:00,
2013-06-25 19:53:00,84.4,75.2,29.78,SE,135,10.4,-999.0,74,-99.99,,,0.00,Acu-Link.com,2013-06-26 00:53:00,
2013-06-25 20:08:00,83.7,74.9,29.78,South,180,5.3,-999.0,75,-99.99,,,0.00,Acu-Link.com,2013-06-26 01:08:00,
2013-06-25 20:23:00,83.1,74.7,29.78,SW,225,3.7,-999.0,76,-99.99,,,0.00,Acu-Link.com,2013-06-26 01:23:00,
2013-06-25 20:39:00,82.6,74.2,29.80,East,90,8.3,-999.0,76,-99.99,,,0.00,Acu-Link.com,2013-06-26 01:39:00,
2013-06-25 20:54:00,82.2,74.3,29.80,ENE,67,6.3,-999.0,77,-99.99,,,0.00,Acu-Link.com,2013-06-26 01:54:00,
2013-06-25 21:09:00,82.0,74.4,29.79,ESE,112,9.4,-999.0,78,-99.99,,,0.00,Acu-Link.com,2013-06-26 02:09:00,
2013-06-25 21:24:00,81.7,74.5,29.79,ESE,112,6.3,-999.0,79,-99.99,,,0.00,Acu-Link.com,2013-06-26 02:24:00,
2013-06-25 21:39:00,81.5,74.3,29.79,ESE,112,6.8,-999.0,79,-99.99,,,0.00,Acu-Link.com,2013-06-26 02:39:00,
2013-06-25 21:54:00,81.5,74.7,29.80,ESE,112,6.8,-999.0,80,-99.99,,,0.00,Acu-Link.com,2013-06-26 02:54:00,
2013-06-25 22:09:00,81.3,74.5,29.80,SE,135,2.7,-999.0,80,-99.99,,,0.00,Acu-Link.com,2013-06-26 03:09:00,
2013-06-25 22:24:00,81.1,74.7,29.81,SE,135,2.7,-999.0,81,-99.99,,,0.00,Acu-Link.com,2013-06-26 03:24:00,
2013-06-25 22:39:00,81.0,74.6,29.82,ESE,112,4.2,-999.0,81,-99.99,,,0.00,Acu-Link.com,2013-06-26 03:39:00,
2013-06-25 22:55:00,81.0,74.6,29.83,ESE,112,3.7,-999.0,81,-99.99,,,0.00,Acu-Link.com,2013-06-26 03:55:00,
2013-06-25 23:10:00,80.8,74.8,29.83,SW,225,9.4,-999.0,82,-99.99,,,0.00,Acu-Link.com,2013-06-26 04:10:00,
2013-06-25 23:25:00,80.8,74.8,29.83,ESE,112,4.2,-999.0,82,-99.99,,,0.00,Acu-Link.com,2013-06-26 04:25:00,
2013-06-25 23:40:00,80.6,74.6,29.83,ESE,112,4.2,-999.0,82,-99.99,,,0.00,Acu-Link.com,2013-06-26 04:40:00,
2013-06-25 23:55:00,80.6,74.6,29.84,ESE,112,11.4,-999.0,82,-99.99,,,0.00,Acu-Link.com,2013-06-26 04:55:00,